sensor_id;sensor_type;location;lat;lon;timestamp;temperature;humidity
10245;DHT22;5167;52.164;10.530;2022-08-11T00:00:04;22.00;5.00
10245;DHT22;5167;52.164;10.530;2022-08-11T00:02:38;22.00;5.00
10245;DHT22;5167;52.164;10.530;2022-08-11T00:05:07;21.90;5.00
10245;DHT22;5167;52.164;10.530;2022-08-11T00:07:40;21.90;5.00
10245;DHT22;5167;52.164;10.530;2022-08-11T00:10:13;21.80;5.00
10245;DHT22;5167;52.164;10.530;2022-08-11T00:12:40;21.80;5.00
10245;DHT22;5167;52.164;10.530;2022-08-11T00:15:07;21.70;5.00
10245;DHT22;5167;52.164;10.530;2022-08-11T00:17:34;21.70;5.00
10245;DHT22;5167;52.164;10.530;2022-08-11T00:20:10;21.60;5.00
10245;DHT22;5167;52.164;10.530;2022-08-11T00:22:39;21.60;5.00
10245;DHT22;5167;52.164;10.530;2022-08-11T00:25:36;21.50;5.00
10245;DHT22;5167;52.164;10.530;2022-08-11T00:28:02;21.50;5.00
10245;DHT22;5167;52.164;10.530;2022-08-11T00:30:37;21.40;5.00
10245;DHT22;5167;52.164;10.530;2022-08-11T00:33:04;21.40;5.00
10245;DHT22;5167;52.164;10.530;2022-08-11T00:35:31;21.40;5.00
10245;DHT22;5167;52.164;10.530;2022-08-11T00:37:58;21.40;5.00
10245;DHT22;5167;52.164;10.530;2022-08-11T00:40:32;21.30;5.00
10245;DHT22;5167;52.164;10.530;2022-08-11T00:46:10;21.20;5.00
10245;DHT22;5167;52.164;10.530;2022-08-11T00:48:54;21.20;5.00
10245;DHT22;5167;52.164;10.530;2022-08-11T01:00:14;20.90;5.00
10245;DHT22;5167;52.164;10.530;2022-08-11T01:03:17;20.90;5.00
10245;DHT22;5167;52.164;10.530;2022-08-11T01:06:00;20.80;5.00
10245;DHT22;5167;52.164;10.530;2022-08-11T01:08:59;20.80;5.00
10245;DHT22;5167;52.164;10.530;2022-08-11T01:11:52;20.80;5.00
10245;DHT22;5167;52.164;10.530;2022-08-11T01:14:45;20.70;5.00
10245;DHT22;5167;52.164;10.530;2022-08-11T01:20:07;20.70;5.00
10245;DHT22;5167;52.164;10.530;2022-08-11T01:30:42;20.50;5.00
10245;DHT22;5167;52.164;10.530;2022-08-11T01:47:33;20.30;5.00
10245;DHT22;5167;52.164;10.530;2022-08-11T01:53:29;20.20;5.00
10245;DHT22;5167;52.164;10.530;2022-08-11T01:59:31;20.00;5.00
10245;DHT22;5167;52.164;10.530;2022-08-11T02:02:17;20.00;5.00
10245;DHT22;5167;52.164;10.530;2022-08-11T02:07:51;19.90;5.00
10245;DHT22;5167;52.164;10.530;2022-08-11T02:10:35;19.90;5.00
10245;DHT22;5167;52.164;10.530;2022-08-11T02:16:16;19.80;5.00
10245;DHT22;5167;52.164;10.530;2022-08-11T02:18:52;19.80;5.00
10245;DHT22;5167;52.164;10.530;2022-08-11T02:21:45;19.80;5.00
10245;DHT22;5167;52.164;10.530;2022-08-11T02:25:06;19.80;5.00
10245;DHT22;5167;52.164;10.530;2022-08-11T02:27:44;19.70;5.00
10245;DHT22;5167;52.164;10.530;2022-08-11T02:30:19;19.70;5.00
10245;DHT22;5167;52.164;10.530;2022-08-11T02:33:15;19.70;5.00
10245;DHT22;5167;52.164;10.530;2022-08-11T02:49:55;19.50;5.00
10245;DHT22;5167;52.164;10.530;2022-08-11T02:52:47;19.50;5.00
10245;DHT22;5167;52.164;10.530;2022-08-11T02:58:10;19.40;5.00
10245;DHT22;5167;52.164;10.530;2022-08-11T03:00:46;19.40;5.00
10245;DHT22;5167;52.164;10.530;2022-08-11T03:03:30;19.30;5.00
10245;DHT22;5167;52.164;10.530;2022-08-11T03:06:11;19.30;5.00
10245;DHT22;5167;52.164;10.530;2022-08-11T03:09:00;19.10;5.00
10245;DHT22;5167;52.164;10.530;2022-08-11T03:11:45;19.20;5.00
10245;DHT22;5167;52.164;10.530;2022-08-11T03:14:52;19.20;5.00
10245;DHT22;5167;52.164;10.530;2022-08-11T03:17:59;19.20;5.00
10245;DHT22;5167;52.164;10.530;2022-08-11T03:20:41;19.20;5.00
10245;DHT22;5167;52.164;10.530;2022-08-11T03:23:28;19.10;5.00
10245;DHT22;5167;52.164;10.530;2022-08-11T03:28:52;19.10;5.00
10245;DHT22;5167;52.164;10.530;2022-08-11T03:34:23;19.00;5.00
10245;DHT22;5167;52.164;10.530;2022-08-11T03:39:26;19.00;5.00
10245;DHT22;5167;52.164;10.530;2022-08-11T03:56:12;18.80;5.00
10245;DHT22;5167;52.164;10.530;2022-08-11T04:18:49;18.70;5.00
10245;DHT22;5167;52.164;10.530;2022-08-11T04:33:08;18.60;5.00
10245;DHT22;5167;52.164;10.530;2022-08-11T04:38:37;18.60;5.00
10245;DHT22;5167;52.164;10.530;2022-08-11T04:44:43;18.60;5.00
10245;DHT22;5167;52.164;10.530;2022-08-11T04:47:22;18.60;5.00
10245;DHT22;5167;52.164;10.530;2022-08-11T04:53:51;18.60;5.00
10245;DHT22;5167;52.164;10.530;2022-08-11T04:56:39;18.60;5.00
10245;DHT22;5167;52.164;10.530;2022-08-11T04:59:47;18.70;5.00
10245;DHT22;5167;52.164;10.530;2022-08-11T05:03:02;18.70;5.00
10245;DHT22;5167;52.164;10.530;2022-08-11T05:08:28;18.80;5.00
10245;DHT22;5167;52.164;10.530;2022-08-11T05:12:23;18.80;5.00
10245;DHT22;5167;52.164;10.530;2022-08-11T05:17:10;18.80;5.00
10245;DHT22;5167;52.164;10.530;2022-08-11T05:19:56;18.80;5.00
10245;DHT22;5167;52.164;10.530;2022-08-11T05:22:48;18.90;5.00
10245;DHT22;5167;52.164;10.530;2022-08-11T05:25:34;18.90;5.00
10245;DHT22;5167;52.164;10.530;2022-08-11T05:28:59;19.00;5.00
10245;DHT22;5167;52.164;10.530;2022-08-11T05:31:50;19.10;5.00
10245;DHT22;5167;52.164;10.530;2022-08-11T05:34:51;19.30;5.00
10245;DHT22;5167;52.164;10.530;2022-08-11T05:40:09;19.40;5.00
10245;DHT22;5167;52.164;10.530;2022-08-11T05:43:11;19.40;5.00
10245;DHT22;5167;52.164;10.530;2022-08-11T05:45:58;19.40;5.00
10245;DHT22;5167;52.164;10.530;2022-08-11T05:48:43;19.50;5.00
10245;DHT22;5167;52.164;10.530;2022-08-11T05:51:38;19.40;5.00
10245;DHT22;5167;52.164;10.530;2022-08-11T05:54:25;19.50;5.00
10245;DHT22;5167;52.164;10.530;2022-08-11T05:57:25;19.60;5.00
10245;DHT22;5167;52.164;10.530;2022-08-11T06:00:05;19.70;5.00
10245;DHT22;5167;52.164;10.530;2022-08-11T06:02:42;19.70;5.00
10245;DHT22;5167;52.164;10.530;2022-08-11T06:05:08;19.80;5.00
10245;DHT22;5167;52.164;10.530;2022-08-11T06:07:34;19.80;5.00
10245;DHT22;5167;52.164;10.530;2022-08-11T06:10:00;19.80;5.00
10245;DHT22;5167;52.164;10.530;2022-08-11T06:12:29;19.90;5.00
10245;DHT22;5167;52.164;10.530;2022-08-11T06:15:04;20.30;5.00
10245;DHT22;5167;52.164;10.530;2022-08-11T06:17:32;20.90;5.00
10245;DHT22;5167;52.164;10.530;2022-08-11T06:20:01;21.30;5.00
10245;DHT22;5167;52.164;10.530;2022-08-11T06:22:27;21.60;5.00
10245;DHT22;5167;52.164;10.530;2022-08-11T06:25:00;21.80;5.00
10245;DHT22;5167;52.164;10.530;2022-08-11T06:27:29;22.10;5.00
10245;DHT22;5167;52.164;10.530;2022-08-11T06:29:56;22.50;5.00
10245;DHT22;5167;52.164;10.530;2022-08-11T06:32:28;22.90;5.00
10245;DHT22;5167;52.164;10.530;2022-08-11T06:35:02;23.10;5.00
10245;DHT22;5167;52.164;10.530;2022-08-11T06:43:10;23.70;5.00
10245;DHT22;5167;52.164;10.530;2022-08-11T06:45:56;23.80;5.00
10245;DHT22;5167;52.164;10.530;2022-08-11T06:48:30;24.00;5.00
10245;DHT22;5167;52.164;10.530;2022-08-11T06:51:05;24.20;5.00
10245;DHT22;5167;52.164;10.530;2022-08-11T06:53:55;24.30;5.00
10245;DHT22;5167;52.164;10.530;2022-08-11T06:56:37;24.50;5.00
10245;DHT22;5167;52.164;10.530;2022-08-11T06:59:23;24.60;5.00
10245;DHT22;5167;52.164;10.530;2022-08-11T07:02:21;24.70;5.00
10245;DHT22;5167;52.164;10.530;2022-08-11T07:04:59;24.90;5.00
10245;DHT22;5167;52.164;10.530;2022-08-11T07:14:10;25.30;5.00
10245;DHT22;5167;52.164;10.530;2022-08-11T07:16:55;25.40;5.00
10245;DHT22;5167;52.164;10.530;2022-08-11T07:19:27;25.50;5.00
10245;DHT22;5167;52.164;10.530;2022-08-11T07:22:12;25.50;5.00
10245;DHT22;5167;52.164;10.530;2022-08-11T07:25:14;25.50;5.00
10245;DHT22;5167;52.164;10.530;2022-08-11T07:28:11;25.50;5.00
10245;DHT22;5167;52.164;10.530;2022-08-11T07:31:05;25.60;5.00
10245;DHT22;5167;52.164;10.530;2022-08-11T07:33:46;25.70;5.00
10245;DHT22;5167;52.164;10.530;2022-08-11T07:36:14;25.80;5.00
10245;DHT22;5167;52.164;10.530;2022-08-11T07:38:43;25.80;5.00
10245;DHT22;5167;52.164;10.530;2022-08-11T07:41:11;25.80;5.00
10245;DHT22;5167;52.164;10.530;2022-08-11T07:43:39;25.90;5.00
10245;DHT22;5167;52.164;10.530;2022-08-11T07:46:06;26.00;5.00
10245;DHT22;5167;52.164;10.530;2022-08-11T07:48:51;26.20;5.00
10245;DHT22;5167;52.164;10.530;2022-08-11T07:51:37;26.30;5.00
10245;DHT22;5167;52.164;10.530;2022-08-11T07:54:22;26.40;5.00
10245;DHT22;5167;52.164;10.530;2022-08-11T07:56:48;26.50;5.00
10245;DHT22;5167;52.164;10.530;2022-08-11T07:59:16;26.60;5.00
10245;DHT22;5167;52.164;10.530;2022-08-11T08:02:01;26.70;5.00
10245;DHT22;5167;52.164;10.530;2022-08-11T08:04:45;26.70;5.00
10245;DHT22;5167;52.164;10.530;2022-08-11T08:07:30;26.80;5.00
10245;DHT22;5167;52.164;10.530;2022-08-11T08:10:16;26.90;5.00
10245;DHT22;5167;52.164;10.530;2022-08-11T08:13:02;27.10;5.00
10245;DHT22;5167;52.164;10.530;2022-08-11T08:15:46;27.20;5.00
10245;DHT22;5167;52.164;10.530;2022-08-11T08:18:33;27.30;5.00
10245;DHT22;5167;52.164;10.530;2022-08-11T08:21:00;27.60;5.00
10245;DHT22;5167;52.164;10.530;2022-08-11T08:23:38;27.70;5.00
10245;DHT22;5167;52.164;10.530;2022-08-11T08:26:06;27.90;5.00
10245;DHT22;5167;52.164;10.530;2022-08-11T08:28:54;28.00;5.00
10245;DHT22;5167;52.164;10.530;2022-08-11T08:31:41;28.20;5.00
10245;DHT22;5167;52.164;10.530;2022-08-11T08:34:07;28.40;5.00
10245;DHT22;5167;52.164;10.530;2022-08-11T08:36:33;28.40;5.00
10245;DHT22;5167;52.164;10.530;2022-08-11T08:38:59;28.60;5.00
10245;DHT22;5167;52.164;10.530;2022-08-11T08:41:29;28.70;5.00
10245;DHT22;5167;52.164;10.530;2022-08-11T08:44:00;29.00;5.00
10245;DHT22;5167;52.164;10.530;2022-08-11T08:46:36;29.10;5.00
10245;DHT22;5167;52.164;10.530;2022-08-11T08:49:05;29.20;5.00
10245;DHT22;5167;52.164;10.530;2022-08-11T08:51:35;29.40;5.00
10245;DHT22;5167;52.164;10.530;2022-08-11T08:54:08;29.50;5.00
10245;DHT22;5167;52.164;10.530;2022-08-11T08:56:38;29.70;5.00
10245;DHT22;5167;52.164;10.530;2022-08-11T08:59:04;29.90;5.00
10245;DHT22;5167;52.164;10.530;2022-08-11T09:01:59;30.00;5.00
10245;DHT22;5167;52.164;10.530;2022-08-11T09:04:26;30.20;5.00
10245;DHT22;5167;52.164;10.530;2022-08-11T09:06:54;30.30;5.00
10245;DHT22;5167;52.164;10.530;2022-08-11T09:09:21;30.40;5.00
10245;DHT22;5167;52.164;10.530;2022-08-11T09:11:47;30.40;5.00
10245;DHT22;5167;52.164;10.530;2022-08-11T09:14:25;30.60;5.00
10245;DHT22;5167;52.164;10.530;2022-08-11T09:17:11;30.70;5.00
10245;DHT22;5167;52.164;10.530;2022-08-11T09:19:37;30.80;5.00
10245;DHT22;5167;52.164;10.530;2022-08-11T09:22:03;30.90;5.00
10245;DHT22;5167;52.164;10.530;2022-08-11T09:24:48;31.10;5.00
10245;DHT22;5167;52.164;10.530;2022-08-11T09:27:34;31.10;5.00
10245;DHT22;5167;52.164;10.530;2022-08-11T09:30:00;31.30;5.00
10245;DHT22;5167;52.164;10.530;2022-08-11T09:32:26;31.40;5.00
10245;DHT22;5167;52.164;10.530;2022-08-11T09:34:53;31.50;5.00
10245;DHT22;5167;52.164;10.530;2022-08-11T09:37:20;31.60;5.00
10245;DHT22;5167;52.164;10.530;2022-08-11T09:40:06;31.70;5.00
10245;DHT22;5167;52.164;10.530;2022-08-11T09:42:52;31.80;5.00
10245;DHT22;5167;52.164;10.530;2022-08-11T09:45:37;31.90;5.00
10245;DHT22;5167;52.164;10.530;2022-08-11T09:48:03;31.90;5.00
10245;DHT22;5167;52.164;10.530;2022-08-11T09:50:31;32.00;5.00
10245;DHT22;5167;52.164;10.530;2022-08-11T09:52:57;32.00;5.00
10245;DHT22;5167;52.164;10.530;2022-08-11T09:55:24;32.20;5.00
10245;DHT22;5167;52.164;10.530;2022-08-11T09:57:49;32.20;5.00
10245;DHT22;5167;52.164;10.530;2022-08-11T10:00:35;32.50;5.00
10245;DHT22;5167;52.164;10.530;2022-08-11T10:03:25;32.30;5.00
10245;DHT22;5167;52.164;10.530;2022-08-11T10:05:55;32.40;5.00
10245;DHT22;5167;52.164;10.530;2022-08-11T10:08:41;32.50;5.00
10245;DHT22;5167;52.164;10.530;2022-08-11T10:11:11;32.50;5.00
10245;DHT22;5167;52.164;10.530;2022-08-11T10:13:41;32.60;5.00
10245;DHT22;5167;52.164;10.530;2022-08-11T10:16:28;32.70;5.00
10245;DHT22;5167;52.164;10.530;2022-08-11T10:18:57;32.80;5.00
10245;DHT22;5167;52.164;10.530;2022-08-11T10:23:51;32.80;5.00
10245;DHT22;5167;52.164;10.530;2022-08-11T10:26:36;32.90;5.00
10245;DHT22;5167;52.164;10.530;2022-08-11T10:29:24;33.00;5.00
10245;DHT22;5167;52.164;10.530;2022-08-11T10:32:09;33.10;5.00
10245;DHT22;5167;52.164;10.530;2022-08-11T10:34:54;33.10;5.00
10245;DHT22;5167;52.164;10.530;2022-08-11T10:37:22;33.10;5.00
10245;DHT22;5167;52.164;10.530;2022-08-11T10:39:49;33.20;5.00
10245;DHT22;5167;52.164;10.530;2022-08-11T10:42:16;33.30;5.00
10245;DHT22;5167;52.164;10.530;2022-08-11T10:45:00;33.20;5.00
10245;DHT22;5167;52.164;10.530;2022-08-11T10:47:28;33.20;5.00
10245;DHT22;5167;52.164;10.530;2022-08-11T10:50:07;33.20;5.00
10245;DHT22;5167;52.164;10.530;2022-08-11T10:52:55;33.10;5.00
10245;DHT22;5167;52.164;10.530;2022-08-11T10:55:42;33.20;5.00
10245;DHT22;5167;52.164;10.530;2022-08-11T10:58:26;33.10;5.00
10245;DHT22;5167;52.164;10.530;2022-08-11T11:01:12;33.00;5.00
10245;DHT22;5167;52.164;10.530;2022-08-11T11:03:39;33.00;5.00
10245;DHT22;5167;52.164;10.530;2022-08-11T11:06:20;33.00;5.00
10245;DHT22;5167;52.164;10.530;2022-08-11T11:08:53;33.00;5.00
10245;DHT22;5167;52.164;10.530;2022-08-11T11:11:27;33.10;5.00
10245;DHT22;5167;52.164;10.530;2022-08-11T11:14:16;33.10;5.00
10245;DHT22;5167;52.164;10.530;2022-08-11T11:17:05;33.20;5.00
10245;DHT22;5167;52.164;10.530;2022-08-11T11:19:54;33.10;5.00
10245;DHT22;5167;52.164;10.530;2022-08-11T11:22:24;33.10;5.00
10245;DHT22;5167;52.164;10.530;2022-08-11T11:30:15;33.00;5.00
10245;DHT22;5167;52.164;10.530;2022-08-11T11:33:22;33.00;5.00
10245;DHT22;5167;52.164;10.530;2022-08-11T11:36:08;33.00;5.00
10245;DHT22;5167;52.164;10.530;2022-08-11T11:38:37;33.00;5.00
10245;DHT22;5167;52.164;10.530;2022-08-11T11:41:03;33.00;5.00
10245;DHT22;5167;52.164;10.530;2022-08-11T11:43:47;33.00;5.00
10245;DHT22;5167;52.164;10.530;2022-08-11T11:46:13;33.00;5.00
10245;DHT22;5167;52.164;10.530;2022-08-11T11:48:39;33.00;5.00
10245;DHT22;5167;52.164;10.530;2022-08-11T11:51:06;33.00;5.00
10245;DHT22;5167;52.164;10.530;2022-08-11T11:53:32;32.90;5.00
10245;DHT22;5167;52.164;10.530;2022-08-11T11:55:58;33.00;5.00
10245;DHT22;5167;52.164;10.530;2022-08-11T11:58:26;32.90;5.00
10245;DHT22;5167;52.164;10.530;2022-08-11T12:01:10;32.90;5.00
10245;DHT22;5167;52.164;10.530;2022-08-11T12:03:46;32.90;5.00
10245;DHT22;5167;52.164;10.530;2022-08-11T12:06:14;32.90;5.00
10245;DHT22;5167;52.164;10.530;2022-08-11T12:08:41;32.90;5.00
10245;DHT22;5167;52.164;10.530;2022-08-11T12:11:11;32.90;5.00
10245;DHT22;5167;52.164;10.530;2022-08-11T12:13:59;32.90;5.00
10245;DHT22;5167;52.164;10.530;2022-08-11T12:16:26;32.90;5.00
10245;DHT22;5167;52.164;10.530;2022-08-11T12:18:56;32.80;5.00
10245;DHT22;5167;52.164;10.530;2022-08-11T12:21:23;32.80;5.00
10245;DHT22;5167;52.164;10.530;2022-08-11T12:23:49;32.70;5.00
10245;DHT22;5167;52.164;10.530;2022-08-11T12:26:35;32.80;5.00
10245;DHT22;5167;52.164;10.530;2022-08-11T12:29:20;32.70;5.00
10245;DHT22;5167;52.164;10.530;2022-08-11T12:31:52;32.70;5.00
10245;DHT22;5167;52.164;10.530;2022-08-11T12:34:18;32.70;5.00
10245;DHT22;5167;52.164;10.530;2022-08-11T12:36:54;32.70;5.00
10245;DHT22;5167;52.164;10.530;2022-08-11T12:39:23;32.60;5.00
10245;DHT22;5167;52.164;10.530;2022-08-11T12:42:11;32.60;5.00
10245;DHT22;5167;52.164;10.530;2022-08-11T12:44:57;32.60;5.00
10245;DHT22;5167;52.164;10.530;2022-08-11T12:47:47;32.60;5.00
10245;DHT22;5167;52.164;10.530;2022-08-11T12:50:33;32.60;5.00
10245;DHT22;5167;52.164;10.530;2022-08-11T12:53:22;32.50;5.00
10245;DHT22;5167;52.164;10.530;2022-08-11T12:55:50;32.50;5.00
10245;DHT22;5167;52.164;10.530;2022-08-11T12:58:39;32.50;5.00
10245;DHT22;5167;52.164;10.530;2022-08-11T13:01:06;32.40;5.00
10245;DHT22;5167;52.164;10.530;2022-08-11T13:03:50;32.40;5.00
10245;DHT22;5167;52.164;10.530;2022-08-11T13:06:34;32.50;5.00
10245;DHT22;5167;52.164;10.530;2022-08-11T13:09:02;32.30;5.00
10245;DHT22;5167;52.164;10.530;2022-08-11T13:11:29;32.30;5.00
10245;DHT22;5167;52.164;10.530;2022-08-11T13:14:14;32.30;5.00
10245;DHT22;5167;52.164;10.530;2022-08-11T13:16:41;32.30;5.00
10245;DHT22;5167;52.164;10.530;2022-08-11T13:19:27;32.30;5.00
10245;DHT22;5167;52.164;10.530;2022-08-11T13:21:53;32.20;5.00
10245;DHT22;5167;52.164;10.530;2022-08-11T13:24:20;32.20;5.00
10245;DHT22;5167;52.164;10.530;2022-08-11T13:26:46;32.20;5.00
10245;DHT22;5167;52.164;10.530;2022-08-11T13:29:19;32.20;5.00
10245;DHT22;5167;52.164;10.530;2022-08-11T13:31:45;32.20;5.00
10245;DHT22;5167;52.164;10.530;2022-08-11T13:34:11;32.20;5.00
10245;DHT22;5167;52.164;10.530;2022-08-11T13:36:37;32.20;5.00
10245;DHT22;5167;52.164;10.530;2022-08-11T13:39:04;32.20;5.00
10245;DHT22;5167;52.164;10.530;2022-08-11T13:41:29;32.20;5.00
10245;DHT22;5167;52.164;10.530;2022-08-11T13:44:09;32.20;5.00
10245;DHT22;5167;52.164;10.530;2022-08-11T13:46:36;32.20;5.00
10245;DHT22;5167;52.164;10.530;2022-08-11T13:49:03;32.30;5.00
10245;DHT22;5167;52.164;10.530;2022-08-11T13:51:31;32.20;5.00
10245;DHT22;5167;52.164;10.530;2022-08-11T13:54:16;32.20;5.00
10245;DHT22;5167;52.164;10.530;2022-08-11T13:56:47;32.10;5.00
10245;DHT22;5167;52.164;10.530;2022-08-11T13:59:17;32.20;5.00
10245;DHT22;5167;52.164;10.530;2022-08-11T14:01:48;32.10;5.00
10245;DHT22;5167;52.164;10.530;2022-08-11T14:04:19;32.00;5.00
10245;DHT22;5167;52.164;10.530;2022-08-11T14:06:52;32.00;5.00
10245;DHT22;5167;52.164;10.530;2022-08-11T14:09:26;32.10;5.00
10245;DHT22;5167;52.164;10.530;2022-08-11T14:11:56;32.10;5.00
10245;DHT22;5167;52.164;10.530;2022-08-11T14:14:41;32.10;5.00
10245;DHT22;5167;52.164;10.530;2022-08-11T14:17:08;32.10;5.00
10245;DHT22;5167;52.164;10.530;2022-08-11T14:19:38;32.00;5.00
10245;DHT22;5167;52.164;10.530;2022-08-11T14:22:04;32.00;5.00
10245;DHT22;5167;52.164;10.530;2022-08-11T14:24:37;32.10;5.00
10245;DHT22;5167;52.164;10.530;2022-08-11T14:27:09;32.10;5.00
10245;DHT22;5167;52.164;10.530;2022-08-11T14:29:37;32.20;5.00
10245;DHT22;5167;52.164;10.530;2022-08-11T14:32:07;32.20;5.00
10245;DHT22;5167;52.164;10.530;2022-08-11T14:34:35;32.20;5.00
10245;DHT22;5167;52.164;10.530;2022-08-11T14:37:06;32.20;5.00
10245;DHT22;5167;52.164;10.530;2022-08-11T14:39:35;32.20;5.00
10245;DHT22;5167;52.164;10.530;2022-08-11T14:42:05;32.20;5.00
10245;DHT22;5167;52.164;10.530;2022-08-11T14:44:58;32.10;5.00
10245;DHT22;5167;52.164;10.530;2022-08-11T14:47:47;32.10;5.00
10245;DHT22;5167;52.164;10.530;2022-08-11T14:50:17;32.10;5.00
10245;DHT22;5167;52.164;10.530;2022-08-11T14:53:09;32.00;5.00
10245;DHT22;5167;52.164;10.530;2022-08-11T14:55:37;32.10;5.00
10245;DHT22;5167;52.164;10.530;2022-08-11T14:58:23;32.10;5.00
10245;DHT22;5167;52.164;10.530;2022-08-11T15:00:55;32.10;5.00
10245;DHT22;5167;52.164;10.530;2022-08-11T15:03:23;32.10;5.00
10245;DHT22;5167;52.164;10.530;2022-08-11T15:05:53;32.10;5.00
10245;DHT22;5167;52.164;10.530;2022-08-11T15:08:21;32.10;5.00
10245;DHT22;5167;52.164;10.530;2022-08-11T15:11:11;32.10;5.00
10245;DHT22;5167;52.164;10.530;2022-08-11T15:13:57;32.10;5.00
10245;DHT22;5167;52.164;10.530;2022-08-11T15:16:25;32.00;5.00
10245;DHT22;5167;52.164;10.530;2022-08-11T15:19:11;32.10;5.00
10245;DHT22;5167;52.164;10.530;2022-08-11T15:21:37;32.00;5.00
10245;DHT22;5167;52.164;10.530;2022-08-11T15:24:21;32.00;5.00
10245;DHT22;5167;52.164;10.530;2022-08-11T15:26:49;32.00;5.00
10245;DHT22;5167;52.164;10.530;2022-08-11T15:29:35;32.00;5.00
10245;DHT22;5167;52.164;10.530;2022-08-11T15:32:21;32.00;5.00
10245;DHT22;5167;52.164;10.530;2022-08-11T15:34:59;32.00;5.00
10245;DHT22;5167;52.164;10.530;2022-08-11T15:37:45;32.00;5.00
10245;DHT22;5167;52.164;10.530;2022-08-11T15:40:18;31.90;5.00
10245;DHT22;5167;52.164;10.530;2022-08-11T15:43:22;31.90;5.00
10245;DHT22;5167;52.164;10.530;2022-08-11T15:46:12;32.00;5.00
10245;DHT22;5167;52.164;10.530;2022-08-11T15:49:04;31.90;5.00
10245;DHT22;5167;52.164;10.530;2022-08-11T15:51:35;31.90;5.00
10245;DHT22;5167;52.164;10.530;2022-08-11T15:54:08;32.00;5.00
10245;DHT22;5167;52.164;10.530;2022-08-11T15:56:39;32.20;5.00
10245;DHT22;5167;52.164;10.530;2022-08-11T15:59:07;31.90;5.00
10245;DHT22;5167;52.164;10.530;2022-08-11T16:01:54;31.90;5.00
10245;DHT22;5167;52.164;10.530;2022-08-11T16:04:40;32.00;5.00
10245;DHT22;5167;52.164;10.530;2022-08-11T16:07:10;31.90;5.00
10245;DHT22;5167;52.164;10.530;2022-08-11T16:09:43;31.60;5.00
10245;DHT22;5167;52.164;10.530;2022-08-11T16:12:14;31.90;5.00
10245;DHT22;5167;52.164;10.530;2022-08-11T16:14:46;31.80;5.00
10245;DHT22;5167;52.164;10.530;2022-08-11T16:17:34;31.80;5.00
10245;DHT22;5167;52.164;10.530;2022-08-11T16:20:03;31.80;5.00
10245;DHT22;5167;52.164;10.530;2022-08-11T16:22:32;31.80;5.00
10245;DHT22;5167;52.164;10.530;2022-08-11T16:25:05;31.70;5.00
10245;DHT22;5167;52.164;10.530;2022-08-11T16:27:35;31.70;5.00
10245;DHT22;5167;52.164;10.530;2022-08-11T16:30:02;31.70;5.00
10245;DHT22;5167;52.164;10.530;2022-08-11T16:32:30;31.80;5.00
10245;DHT22;5167;52.164;10.530;2022-08-11T16:35:06;31.70;5.00
10245;DHT22;5167;52.164;10.530;2022-08-11T16:37:53;31.80;5.00
10245;DHT22;5167;52.164;10.530;2022-08-11T16:40:38;31.60;5.00
10245;DHT22;5167;52.164;10.530;2022-08-11T16:43:07;31.70;5.00
10245;DHT22;5167;52.164;10.530;2022-08-11T16:45:52;31.60;5.00
10245;DHT22;5167;52.164;10.530;2022-08-11T16:48:37;31.60;5.00
10245;DHT22;5167;52.164;10.530;2022-08-11T16:51:09;31.30;5.00
10245;DHT22;5167;52.164;10.530;2022-08-11T16:53:35;31.50;5.00
10245;DHT22;5167;52.164;10.530;2022-08-11T16:56:02;31.50;5.00
10245;DHT22;5167;52.164;10.530;2022-08-11T16:58:30;31.50;5.00
10245;DHT22;5167;52.164;10.530;2022-08-11T17:01:20;31.40;5.00
10245;DHT22;5167;52.164;10.530;2022-08-11T17:03:51;31.50;5.00
10245;DHT22;5167;52.164;10.530;2022-08-11T17:06:38;31.40;5.00
10245;DHT22;5167;52.164;10.530;2022-08-11T17:09:25;31.40;5.00
10245;DHT22;5167;52.164;10.530;2022-08-11T17:12:12;31.40;5.00
10245;DHT22;5167;52.164;10.530;2022-08-11T17:15:00;31.30;5.00
10245;DHT22;5167;52.164;10.530;2022-08-11T17:17:32;31.20;5.00
10245;DHT22;5167;52.164;10.530;2022-08-11T17:20:05;31.30;5.00
10245;DHT22;5167;52.164;10.530;2022-08-11T17:22:35;31.30;5.00
10245;DHT22;5167;52.164;10.530;2022-08-11T17:25:23;31.30;5.00
10245;DHT22;5167;52.164;10.530;2022-08-11T17:27:53;31.20;5.00
10245;DHT22;5167;52.164;10.530;2022-08-11T17:30:21;31.20;5.00
10245;DHT22;5167;52.164;10.530;2022-08-11T17:33:07;31.20;5.00
10245;DHT22;5167;52.164;10.530;2022-08-11T17:35:52;31.20;5.00
10245;DHT22;5167;52.164;10.530;2022-08-11T17:38:20;31.20;5.00
10245;DHT22;5167;52.164;10.530;2022-08-11T17:40:51;31.10;5.00
10245;DHT22;5167;52.164;10.530;2022-08-11T17:43:36;31.10;5.00
10245;DHT22;5167;52.164;10.530;2022-08-11T17:46:22;31.10;5.00
10245;DHT22;5167;52.164;10.530;2022-08-11T17:49:07;31.10;5.00
10245;DHT22;5167;52.164;10.530;2022-08-11T17:51:35;31.00;5.00
10245;DHT22;5167;52.164;10.530;2022-08-11T17:54:21;31.00;5.00
10245;DHT22;5167;52.164;10.530;2022-08-11T17:57:07;31.00;5.00
10245;DHT22;5167;52.164;10.530;2022-08-11T17:59:53;30.90;5.00
10245;DHT22;5167;52.164;10.530;2022-08-11T18:02:33;30.90;5.00
10245;DHT22;5167;52.164;10.530;2022-08-11T18:05:19;30.80;5.00
10245;DHT22;5167;52.164;10.530;2022-08-11T18:07:49;30.70;5.00
10245;DHT22;5167;52.164;10.530;2022-08-11T18:10:34;30.70;5.00
10245;DHT22;5167;52.164;10.530;2022-08-11T18:13:23;30.50;5.00
10245;DHT22;5167;52.164;10.530;2022-08-11T18:16:08;30.70;5.00
10245;DHT22;5167;52.164;10.530;2022-08-11T18:18:53;30.50;5.00
10245;DHT22;5167;52.164;10.530;2022-08-11T18:21:43;30.60;5.00
10245;DHT22;5167;52.164;10.530;2022-08-11T18:24:31;30.50;5.00
10245;DHT22;5167;52.164;10.530;2022-08-11T18:27:19;30.50;5.00
10245;DHT22;5167;52.164;10.530;2022-08-11T18:30:05;30.40;5.00
10245;DHT22;5167;52.164;10.530;2022-08-11T18:32:53;30.40;5.00
10245;DHT22;5167;52.164;10.530;2022-08-11T18:35:40;30.10;5.00
10245;DHT22;5167;52.164;10.530;2022-08-11T18:38:26;30.20;5.00
10245;DHT22;5167;52.164;10.530;2022-08-11T18:41:13;30.30;5.00
10245;DHT22;5167;52.164;10.530;2022-08-11T18:44:02;30.30;5.00
10245;DHT22;5167;52.164;10.530;2022-08-11T18:46:49;30.20;5.00
10245;DHT22;5167;52.164;10.530;2022-08-11T18:49:36;30.10;5.00
10245;DHT22;5167;52.164;10.530;2022-08-11T18:52:21;29.90;5.00
10245;DHT22;5167;52.164;10.530;2022-08-11T18:55:10;29.90;5.00
10245;DHT22;5167;52.164;10.530;2022-08-11T18:57:57;30.00;5.00
10245;DHT22;5167;52.164;10.530;2022-08-11T19:00:45;30.00;5.00
10245;DHT22;5167;52.164;10.530;2022-08-11T19:03:30;29.80;5.00
10245;DHT22;5167;52.164;10.530;2022-08-11T19:06:18;29.70;5.00
10245;DHT22;5167;52.164;10.530;2022-08-11T19:09:07;29.70;5.00
10245;DHT22;5167;52.164;10.530;2022-08-11T19:11:52;29.70;5.00
10245;DHT22;5167;52.164;10.530;2022-08-11T19:14:37;29.60;5.00
10245;DHT22;5167;52.164;10.530;2022-08-11T19:17:23;29.50;5.00
10245;DHT22;5167;52.164;10.530;2022-08-11T19:20:16;29.40;5.00
10245;DHT22;5167;52.164;10.530;2022-08-11T19:23:01;29.30;5.00
10245;DHT22;5167;52.164;10.530;2022-08-11T19:25:46;29.20;5.00
10245;DHT22;5167;52.164;10.530;2022-08-11T19:28:33;29.20;5.00
10245;DHT22;5167;52.164;10.530;2022-08-11T19:31:18;29.20;5.00
10245;DHT22;5167;52.164;10.530;2022-08-11T19:34:04;29.00;5.00